Ana Sayfa
METAR-TAF:

METAR-TAF

Havaalanları :

Tunus-Kartaca Uluslararası Havalimanı

Tunus, Tunus

Enlem: 36-50N, Boylam: 010-14E, yükseklik: 3 m

Güncel hava durumu gözlemi

Rapor saat 21:30 UTC de 12 dakika önce yapıldı.
Rüzgar doğu/güneydoğudan 8 kt
Sıcaklık 23°C
Nem 53%
Basınç 1016 hPa
Görüş mesafesi 10 km veya daha fazla
2600 ft yükseklikte az bulutlu

METAR: DTTA 262130Z 12008KT 9999 FEW026 23/13 Q1016 NOSIG

Saat: 22:42 (21:42 UTC)

Tahmin

Rapor saat 18:07 UTC de 3 saat ve 35 dakika önce yapıldı.
Ayın 26'si saat 18 UTC'den ayın 27'si saat 18 UTC'ye kadar geçerli Tahmin
Rüzgar doğudan 10 kt
Görüş mesafesi 10 km veya daha fazla
3000 ft yükseklikte az bulutlu

TAF: DTTA 261807Z 2618/2718 10010KT 9999 FEW030

4.000'den fazla havaalanı için hava durumu gözlemleri ve tahminleri (METAR ve TAF raporları).

Kullanılabilir istasyonlar harita üzerinde sarı ve kırmızı noktalarla gösterilir.

İstasyonun adını görmek için fareyi noktanın üzerinde gezdirin.

Sonrasında hava gözlem ve tahminlerini görmek için tıklayın.

Haritayı değiştirmek için: yaklaştırmak için siyah artı işaretli yeşil düğmeye ve uzaklaştırmak için de eksi işaretli düğmeye hızla tıklayın; bitişik haritalar için yeşil okları kullanın.


METAR-TAF: